createdAt,value
2023-05-18T00:03:17.274Z,13.68
2023-05-18T00:07:34.459Z,13.73
2023-05-18T00:11:46.956Z,13.69
2023-05-18T00:15:59.493Z,14.06
2023-05-18T00:20:12.606Z,14.10
2023-05-18T00:24:25.058Z,13.87
2023-05-18T00:28:37.400Z,13.77
2023-05-18T00:32:49.786Z,13.70
2023-05-18T00:37:02.174Z,13.76
2023-05-18T00:41:14.598Z,13.79
2023-05-18T00:45:27.637Z,13.73
2023-05-18T00:49:40.064Z,13.71
2023-05-18T00:53:54.694Z,13.67
2023-05-18T00:58:07.405Z,13.69
2023-05-18T01:02:23.151Z,13.73
2023-05-18T01:06:36.566Z,13.55
2023-05-18T01:10:56.746Z,13.37
2023-05-18T01:15:14.073Z,13.22
2023-05-18T01:19:59.840Z,13.31
2023-05-18T01:24:19.457Z,13.20
2023-05-18T01:28:33.812Z,13.55
2023-05-18T01:32:47.297Z,13.48
2023-05-18T01:36:59.882Z,13.39
2023-05-18T01:41:21.593Z,13.40
2023-05-18T01:45:38.026Z,13.40
2023-05-18T01:50:17.449Z,13.34
2023-05-18T01:54:32.033Z,13.38
2023-05-18T01:58:44.753Z,13.38
2023-05-18T02:02:57.411Z,13.28
2023-05-18T02:07:09.854Z,13.18
2023-05-18T02:11:22.237Z,13.06
2023-05-18T02:15:34.668Z,12.95
2023-05-18T02:19:47.027Z,13.11
2023-05-18T02:24:00.797Z,13.09
2023-05-18T02:28:13.169Z,13.04
2023-05-18T02:32:25.720Z,12.85
2023-05-18T02:36:40.485Z,12.91
2023-05-18T02:40:53.040Z,12.81
2023-05-18T02:45:06.295Z,12.81
2023-05-18T02:49:19.171Z,13.19
2023-05-18T02:53:32.087Z,13.02
2023-05-18T02:57:50.319Z,12.90
2023-05-18T03:02:08.026Z,12.78
2023-05-18T03:06:26.913Z,12.67
2023-05-18T03:10:40.815Z,12.72
2023-05-18T03:14:53.320Z,12.75
2023-05-18T03:19:05.734Z,12.87
2023-05-18T03:23:22.330Z,13.05
2023-05-18T03:27:35.798Z,13.10
2023-05-18T03:31:48.680Z,13.19
2023-05-18T03:36:04.262Z,13.07
2023-05-18T03:40:18.043Z,13.22
2023-05-18T03:44:32.554Z,13.12
2023-05-18T03:48:45.215Z,13.20
2023-05-18T03:52:59.614Z,13.29
2023-05-18T03:57:11.946Z,13.30
2023-05-18T04:01:25.392Z,13.39
2023-05-18T04:05:37.716Z,13.51
2023-05-18T04:09:52.337Z,13.65
2023-05-18T04:14:05.589Z,13.75
2023-05-18T04:18:18.017Z,13.79
2023-05-18T04:22:31.575Z,14.03
2023-05-18T04:26:44.064Z,14.18
2023-05-18T04:30:56.589Z,14.42
2023-05-18T04:35:11.278Z,15.12
2023-05-18T04:39:25.676Z,15.18
2023-05-18T04:43:38.811Z,14.58
2023-05-18T04:47:54.362Z,15.41
2023-05-18T04:52:10.578Z,16.94
2023-05-18T04:56:23.532Z,17.54
2023-05-18T05:00:35.928Z,17.51
2023-05-18T05:04:48.520Z,18.52
2023-05-18T05:09:00.982Z,19.09
2023-05-18T05:13:13.468Z,19.55
2023-05-18T05:17:26.952Z,18.74
2023-05-18T05:21:40.549Z,19.10
2023-05-18T05:25:53.126Z,20.10
2023-05-18T05:30:07.649Z,20.36
2023-05-18T05:34:21.995Z,20.69
2023-05-18T05:38:34.780Z,20.83
2023-05-18T05:42:47.299Z,20.80
2023-05-18T05:46:59.741Z,21.18
2023-05-18T05:51:12.844Z,20.56
2023-05-18T05:55:25.510Z,19.97
2023-05-18T05:59:38.826Z,20.08
2023-05-18T06:03:52.256Z,20.52
2023-05-18T06:08:05.236Z,20.99
2023-05-18T06:12:17.935Z,21.70
2023-05-18T06:16:30.588Z,21.13
2023-05-18T06:20:45.330Z,21.26
2023-05-18T06:24:59.882Z,22.33
2023-05-18T06:29:28.568Z,21.77
2023-05-18T06:33:46.648Z,21.34
2023-05-18T06:38:00.686Z,20.92
2023-05-18T06:42:13.143Z,20.90
2023-05-18T06:46:35.682Z,21.09
2023-05-18T06:50:54.128Z,21.16
2023-05-18T06:55:07.946Z,20.99
2023-05-18T06:59:20.683Z,20.74
2023-05-18T07:03:33.394Z,21.04
2023-05-18T07:07:45.918Z,21.13
2023-05-18T07:11:58.423Z,20.97
2023-05-18T07:16:10.913Z,20.92
2023-05-18T07:20:25.970Z,21.02
2023-05-18T07:24:38.808Z,21.88
2023-05-18T07:28:51.926Z,21.39
2023-05-18T07:33:04.774Z,21.15
2023-05-18T07:37:17.492Z,21.83
2023-05-18T07:41:31.488Z,22.20
2023-05-18T07:45:43.948Z,22.44
2023-05-18T07:49:56.589Z,20.91
2023-05-18T07:54:09.398Z,20.93
2023-05-18T07:58:21.863Z,22.77
2023-05-18T08:02:36.065Z,22.93
2023-05-18T08:06:48.409Z,22.79
2023-05-18T08:11:00.884Z,22.62
2023-05-18T08:15:13.337Z,22.93
2023-05-18T08:19:26.305Z,22.90
2023-05-18T08:23:39.380Z,22.71
2023-05-18T08:27:51.765Z,22.34
2023-05-18T08:32:07.413Z,22.68
2023-05-18T08:36:20.025Z,22.30
2023-05-18T08:40:47.874Z,23.12
2023-05-18T08:45:13.470Z,24.00
2023-05-18T08:49:27.665Z,22.72
2023-05-18T08:53:43.541Z,22.29
2023-05-18T08:57:58.341Z,21.87
2023-05-18T09:02:10.936Z,23.19
2023-05-18T09:06:26.568Z,23.08
2023-05-18T09:10:40.220Z,23.44
2023-05-18T09:14:53.959Z,21.90
2023-05-18T09:19:06.853Z,22.58
2023-05-18T09:23:19.308Z,21.92
2023-05-18T09:27:33.271Z,22.09
2023-05-18T09:31:47.035Z,22.71
2023-05-18T09:35:59.551Z,23.35
2023-05-18T09:40:12.422Z,23.56
2023-05-18T09:44:37.294Z,23.40
2023-05-18T09:48:51.787Z,22.71
2023-05-18T09:53:08.659Z,23.61
2023-05-18T09:57:22.405Z,23.91
2023-05-18T10:01:35.191Z,23.62
2023-05-18T10:05:48.332Z,23.69
2023-05-18T10:10:05.082Z,23.71
2023-05-18T10:14:25.838Z,23.78
2023-05-18T10:18:39.096Z,24.23
2023-05-18T10:22:52.674Z,24.27
2023-05-18T10:27:10.536Z,23.11
2023-05-18T10:31:24.990Z,23.71
2023-05-18T10:35:39.366Z,23.34
2023-05-18T10:39:55.158Z,24.41
2023-05-18T10:44:08.306Z,22.69
2023-05-18T10:48:22.566Z,23.54
2023-05-18T10:52:37.889Z,22.43
2023-05-18T10:56:54.186Z,21.94
2023-05-18T11:01:11.002Z,23.40
2023-05-18T11:05:27.188Z,23.45
2023-05-18T11:09:43.723Z,23.36
2023-05-18T11:14:04.278Z,23.33
2023-05-18T11:18:16.833Z,23.82
2023-05-18T11:22:51.793Z,24.86
2023-05-18T11:27:16.672Z,23.88
2023-05-18T11:31:45.924Z,24.60
2023-05-18T11:36:15.164Z,24.21
2023-05-18T11:40:47.144Z,24.96
2023-05-18T11:45:09.898Z,24.81
2023-05-18T11:49:27.624Z,25.08
2023-05-18T11:53:41.700Z,25.19
2023-05-18T11:57:54.483Z,25.45
2023-05-18T12:02:07.799Z,23.59
2023-05-18T12:06:21.463Z,22.52
2023-05-18T12:10:36.970Z,22.75
2023-05-18T12:15:00.521Z,22.48
2023-05-18T12:19:12.902Z,22.80
2023-05-18T12:23:41.119Z,22.28
2023-05-18T12:27:54.918Z,19.82
2023-05-18T12:32:12.204Z,19.94
2023-05-18T12:36:24.760Z,20.11
2023-05-18T12:40:45.017Z,19.07
2023-05-18T12:44:57.565Z,19.77
2023-05-18T12:49:10.783Z,20.66
2023-05-18T12:53:24.543Z,21.14
2023-05-18T12:57:41.771Z,21.73
2023-05-18T13:01:59.032Z,21.60
2023-05-18T13:06:12.974Z,21.41
2023-05-18T13:10:25.428Z,21.61
2023-05-18T13:14:38.863Z,22.31
2023-05-18T13:19:02.227Z,22.75
2023-05-18T13:23:34.793Z,22.32
2023-05-18T13:27:49.049Z,22.06
2023-05-18T13:32:01.512Z,21.70
2023-05-18T13:36:14.102Z,21.63
2023-05-18T13:40:26.478Z,21.89
2023-05-18T13:44:38.790Z,22.01
2023-05-18T13:48:51.272Z,22.53
2023-05-18T13:53:03.711Z,22.39
2023-05-18T13:57:16.583Z,22.20
2023-05-18T14:01:32.985Z,22.06
2023-05-18T14:05:45.382Z,21.44
2023-05-18T14:09:57.643Z,21.70
2023-05-18T14:14:09.984Z,21.79
2023-05-18T14:18:22.552Z,22.41
2023-05-18T14:22:35.473Z,22.78
2023-05-18T14:26:48.063Z,23.05
2023-05-18T14:31:01.329Z,23.56
2023-05-18T14:35:16.351Z,22.70
2023-05-18T14:39:29.004Z,22.51
2023-05-18T14:43:41.420Z,22.59
2023-05-18T14:47:54.286Z,22.30
2023-05-18T14:52:06.951Z,22.80
2023-05-18T14:56:22.127Z,22.64
2023-05-18T15:00:34.603Z,22.11
2023-05-18T15:04:47.194Z,22.04
2023-05-18T15:08:59.642Z,21.55
2023-05-18T15:13:12.045Z,21.97
2023-05-18T15:17:24.697Z,22.41
2023-05-18T15:21:37.096Z,22.68
2023-05-18T15:25:51.761Z,22.09
2023-05-18T15:30:11.746Z,21.64
2023-05-18T15:34:24.522Z,21.61
2023-05-18T15:38:39.850Z,21.84
2023-05-18T15:42:52.480Z,21.92
2023-05-18T15:47:05.508Z,21.73
2023-05-18T15:51:18.133Z,21.80
2023-05-18T15:55:30.690Z,21.46
2023-05-18T15:59:43.991Z,20.60
2023-05-18T16:03:56.488Z,20.88
2023-05-18T16:08:09.173Z,20.98
2023-05-18T16:12:21.889Z,21.09
2023-05-18T16:16:34.294Z,20.35
2023-05-18T16:20:47.088Z,20.43
2023-05-18T16:24:59.611Z,20.51
2023-05-18T16:29:12.100Z,20.41
2023-05-18T16:33:25.934Z,20.05
2023-05-18T16:37:42.612Z,20.00
2023-05-18T16:41:55.053Z,19.91
2023-05-18T16:46:07.594Z,20.10
2023-05-18T16:50:20.150Z,19.90
2023-05-18T16:54:33.965Z,19.90
2023-05-18T16:58:52.324Z,19.79
2023-05-18T17:03:05.219Z,19.59
2023-05-18T17:07:18.114Z,19.53
2023-05-18T17:11:30.686Z,19.42
2023-05-18T17:15:43.588Z,19.16
2023-05-18T17:19:56.217Z,19.02
2023-05-18T17:24:08.988Z,18.89
2023-05-18T17:28:21.478Z,18.88
2023-05-18T17:32:34.089Z,18.79
2023-05-18T17:36:46.971Z,18.65
2023-05-18T17:40:59.589Z,18.56
2023-05-18T17:45:12.332Z,18.40
2023-05-18T17:49:24.949Z,18.48
2023-05-18T17:53:42.277Z,18.52
2023-05-18T17:57:54.719Z,18.53
2023-05-18T18:02:07.573Z,18.50
2023-05-18T18:06:23.078Z,18.36
2023-05-18T18:10:36.171Z,18.34
2023-05-18T18:14:48.657Z,18.39
2023-05-18T18:19:01.061Z,18.46
2023-05-18T18:23:14.342Z,18.56
2023-05-18T18:27:26.830Z,18.39
2023-05-18T18:31:39.507Z,18.46
2023-05-18T18:35:57.013Z,18.34
2023-05-18T18:40:11.709Z,18.11
2023-05-18T18:44:24.549Z,17.93
2023-05-18T18:48:37.045Z,17.64
2023-05-18T18:52:51.260Z,17.58
2023-05-18T18:57:04.392Z,17.61
2023-05-18T19:01:17.154Z,17.44
2023-05-18T19:05:31.451Z,17.48
2023-05-18T19:09:44.371Z,17.41
2023-05-18T19:13:56.905Z,17.34
2023-05-18T19:18:09.458Z,17.31
2023-05-18T19:22:22.115Z,17.31
2023-05-18T19:26:35.103Z,17.23
2023-05-18T19:30:48.525Z,17.23
2023-05-18T19:35:01.193Z,17.21
2023-05-18T19:39:16.982Z,17.28
2023-05-18T19:43:29.588Z,17.27
2023-05-18T19:47:41.998Z,17.24
2023-05-18T19:51:54.542Z,17.22
2023-05-18T19:56:07.090Z,17.42
2023-05-18T20:00:19.693Z,17.46
2023-05-18T20:04:33.844Z,17.34
2023-05-18T20:08:46.458Z,17.37
2023-05-18T20:12:59.162Z,17.46
2023-05-18T20:17:11.601Z,17.38
2023-05-18T20:21:24.210Z,17.42
2023-05-18T20:25:37.427Z,17.34
2023-05-18T20:29:49.957Z,17.28
2023-05-18T20:34:02.471Z,17.31
2023-05-18T20:38:15.116Z,17.20
2023-05-18T20:42:40.830Z,17.27
2023-05-18T20:46:54.692Z,17.29
2023-05-18T20:51:15.236Z,17.35
2023-05-18T20:55:29.232Z,17.41
2023-05-18T20:59:41.648Z,17.47
2023-05-18T21:03:54.822Z,17.42
2023-05-18T21:08:07.665Z,17.33
2023-05-18T21:12:20.414Z,17.41
2023-05-18T21:16:33.004Z,17.38
2023-05-18T21:20:45.592Z,17.33
2023-05-18T21:24:58.327Z,17.27
2023-05-18T21:29:10.930Z,17.23
2023-05-18T21:33:23.936Z,17.19
2023-05-18T21:37:37.215Z,17.21
2023-05-18T21:41:49.727Z,17.31
2023-05-18T21:46:04.383Z,17.31
2023-05-18T21:50:18.301Z,17.19
2023-05-18T21:54:35.093Z,17.20
2023-05-18T21:58:47.494Z,17.21
2023-05-18T22:03:00.125Z,17.14
2023-05-18T22:07:14.229Z,17.20
2023-05-18T22:11:27.001Z,17.19
2023-05-18T22:15:41.443Z,17.09
2023-05-18T22:19:54.098Z,17.05
2023-05-18T22:24:06.741Z,17.20
2023-05-18T22:28:22.119Z,17.14
2023-05-18T22:32:35.106Z,16.90
2023-05-18T22:36:47.773Z,16.74
2023-05-18T22:41:00.276Z,16.80
2023-05-18T22:45:12.694Z,16.72
2023-05-18T22:49:28.380Z,16.64
2023-05-18T22:53:41.147Z,16.47
2023-05-18T22:57:53.540Z,16.33
2023-05-18T23:02:06.535Z,16.07
2023-05-18T23:06:22.487Z,15.83
2023-05-18T23:10:35.086Z,15.77
2023-05-18T23:14:50.133Z,15.71
2023-05-18T23:19:02.653Z,15.56
2023-05-18T23:23:15.334Z,15.51
2023-05-18T23:27:28.212Z,15.74
2023-05-18T23:31:41.706Z,15.84
2023-05-18T23:35:56.086Z,15.69
2023-05-18T23:40:14.584Z,15.66
2023-05-18T23:44:27.932Z,15.46
2023-05-18T23:48:40.775Z,15.80
2023-05-18T23:52:54.521Z,15.77
2023-05-18T23:57:07.911Z,15.59
